Airfield :
LOGIN :

Register | Disclaimer

   EN    FR    IT 

 










Legend :    VFR   Marginal VFR   IFR   Intensive IFR   Very Intensive IFR
Visi :
Ceiling :
>= 8 km
>= 3000ft
5 to 8 km
1000 to 3000 ft
1500m to 5 km
500 to 1000 ft
800 to 1500m
200 to 500 ft
< 800m
< 200 ft
Symbols :   Thunderstorms  Fog  Heavy snow  Heavy precipitations  Wind > 20 kt
SIGMETs :     Misc.  Thunderstorms  Icing  Turbulence  Mountain Waves  Volcanic Ashes






- Airport Elevation : 17 ft
- IATA code : CPH


EKCH - København - Kastrup (Copenhagen)

CURRENT METAR :
  • 032020Z 16013KT 9999 FEW040CB BKN160 18/15 Q1015 TEMPO SHRA BKN040CB

EXPIRED METARs :
  • 031950Z 14019KT 9999 -SHRA FEW040CB BKN097 18/17 Q1014 TEMPO SHRA BKN040CB
  • 031920Z 16021KT 9999 FEW040CB BKN072 19/15 Q1015 TEMPO SHRA BKN040CB
  • 031856Z 15013KT 9999 FEW040CB BKN110 20/15 Q1015 TEMPO SHRA BKN040CB
  • 031820Z AUTO 15012KT 9999 FEW098/// SCT120/// 22/14 Q1015 TEMPO SHRA BKN040CB
  • 030520Z AUTO 14012KT 9999 SCT074/// SCT083/// BKN096/// BKN140/// 19/16 Q1018 NOSIG
  • 031750Z AUTO 15012KT 9999 FEW084/// 22/14 Q1015 NOSIG

TAF TAF EKCH
Valid from the 03 at 18:00 until the 04 at 18:00 UTC


031706Z 0318/0418 14010KT CAVOK
TEMPO 0318/0403 SHRA SCT040CB
PROB40
TEMPO 0318/0323 VRB15G25KT 4000 +TSRA
BECMG 0323/0401 26010KT
TEMPO 0403/0407 BKN014
TEMPO 0412/0417 FEW030TCU



MET'MAP, your aeronautical weather chart ! - Copyright ORBIFLY December 2007 - Disclaimer

ORBIFLY MET'MAP TEAM :

Programming & Development : Alexandra Zaïnal
Original concept : Baudouin d'Aumeries
Technical & hardware support : Manuel Goepfert
Assistance : Marc-Olivier Méhu




SOURCES & CREDITS :

   NOAA